createdAt,value
2019-01-25T00:00:36.659Z,100425.95
2019-01-25T00:03:10.336Z,100448.25
2019-01-25T00:05:37.417Z,100448.09
2019-01-25T00:08:06.275Z,100444.34
2019-01-25T00:10:35.249Z,100438.06
2019-01-25T00:13:04.465Z,100438.06
2019-01-25T00:15:33.337Z,100441.30
2019-01-25T00:18:02.426Z,100435.44
2019-01-25T00:20:31.323Z,100435.44
2019-01-25T00:22:59.763Z,100430.01
2019-01-25T00:25:28.311Z,100430.01
2019-01-25T00:27:57.247Z,100434.27
2019-01-25T00:30:26.405Z,100416.41
2019-01-25T00:32:55.525Z,100426.13
2019-01-25T00:35:24.517Z,100431.47
2019-01-25T00:37:53.549Z,100429.59
2019-01-25T00:40:22.792Z,100431.38
2019-01-25T00:42:51.761Z,100427.74
2019-01-25T00:45:20.648Z,100427.74
2019-01-25T00:47:49.521Z,100426.93
2019-01-25T00:50:20.174Z,100429.69
2019-01-25T00:52:49.983Z,100417.25
2019-01-25T00:55:18.888Z,100417.25
2019-01-25T00:57:47.579Z,100420.53
2019-01-25T01:00:22.343Z,100437.06
2019-01-25T01:02:51.223Z,100442.00
2019-01-25T01:05:20.809Z,100439.92
2019-01-25T01:07:51.497Z,100439.92
2019-01-25T01:10:21.542Z,100444.19
2019-01-25T01:12:50.550Z,100451.07
2019-01-25T01:15:19.898Z,100445.67
2019-01-25T01:17:48.924Z,100445.67
2019-01-25T01:20:19.674Z,100448.62
2019-01-25T01:22:48.734Z,100452.69
2019-01-25T01:25:17.453Z,100455.36
2019-01-25T01:27:46.391Z,100451.86
2019-01-25T01:30:22.621Z,100451.86
2019-01-25T01:32:51.477Z,100457.02
2019-01-25T01:35:20.334Z,100463.34
2019-01-25T01:37:49.140Z,100463.34
2019-01-25T01:40:22.176Z,100465.84
2019-01-25T01:42:50.405Z,100470.21
2019-01-25T01:45:19.252Z,100475.34
2019-01-25T01:47:48.506Z,100463.67
2019-01-25T01:50:18.844Z,100468.45
2019-01-25T01:52:48.914Z,100457.23
2019-01-25T01:55:17.442Z,100457.23
2019-01-25T01:57:46.277Z,100461.21
2019-01-25T02:00:21.200Z,100456.88
2019-01-25T02:02:50.257Z,100451.30
2019-01-25T02:05:19.862Z,100456.34
2019-01-25T02:07:48.490Z,100456.34
2019-01-25T02:10:20.445Z,100457.40
2019-01-25T02:12:49.206Z,100459.14
2019-01-25T02:15:19.631Z,100454.81
2019-01-25T02:17:48.475Z,100453.70
2019-01-25T02:20:20.225Z,100450.52
2019-01-25T02:22:48.894Z,100457.23
2019-01-25T02:25:17.987Z,100457.23
2019-01-25T02:27:46.901Z,100451.15
2019-01-25T02:30:18.415Z,100438.13
2019-01-25T02:32:47.369Z,100449.55
2019-01-25T02:35:16.377Z,100450.19
2019-01-25T02:37:46.291Z,100444.95
2019-01-25T02:40:20.683Z,100439.45
2019-01-25T02:42:50.304Z,100439.45
2019-01-25T02:45:19.116Z,100427.35
2019-01-25T02:47:47.678Z,100441.89
2019-01-25T02:50:18.161Z,100444.21
2019-01-25T02:52:47.524Z,100444.21
2019-01-25T02:55:17.476Z,100447.09
2019-01-25T02:57:47.450Z,100444.60
2019-01-25T03:00:21.223Z,100448.00
2019-01-25T03:02:50.431Z,100441.25
2019-01-25T03:05:21.151Z,100436.89
2019-01-25T03:07:50.479Z,100436.89
2019-01-25T03:10:28.187Z,100436.76
2019-01-25T03:12:51.712Z,100442.19
2019-01-25T03:15:22.571Z,100441.31
2019-01-25T03:17:51.230Z,100452.08
2019-01-25T03:20:20.137Z,100452.08
2019-01-25T03:22:48.895Z,100449.19
2019-01-25T03:25:25.628Z,100435.55
2019-01-25T03:27:54.389Z,100447.88
2019-01-25T03:30:24.959Z,100447.88
2019-01-25T03:32:53.944Z,100435.68
2019-01-25T03:35:24.624Z,100447.64
2019-01-25T03:37:53.326Z,100449.80
2019-01-25T03:40:24.520Z,100441.68
2019-01-25T03:42:53.515Z,100444.48
2019-01-25T03:45:22.486Z,100450.19
2019-01-25T03:47:51.331Z,100448.66
2019-01-25T03:50:22.721Z,100454.55
2019-01-25T03:52:51.320Z,100454.55
2019-01-25T03:55:20.593Z,100450.71
2019-01-25T03:57:49.553Z,100450.71
2019-01-25T04:00:23.888Z,100445.23
2019-01-25T04:02:52.887Z,100457.22
2019-01-25T04:05:21.688Z,100471.16
2019-01-25T04:07:50.572Z,100471.16
2019-01-25T04:10:21.784Z,100451.82
2019-01-25T04:12:50.541Z,100463.03
2019-01-25T04:15:22.148Z,100441.81
2019-01-25T04:17:50.832Z,100465.41
2019-01-25T04:20:21.608Z,100465.41
2019-01-25T04:22:50.126Z,100473.44
2019-01-25T04:25:23.362Z,100471.87
2019-01-25T04:27:53.267Z,100447.23
2019-01-25T04:30:27.509Z,100457.40
2019-01-25T04:32:56.719Z,100457.78
2019-01-25T04:35:25.834Z,100457.78
2019-01-25T04:37:54.651Z,100463.83
2019-01-25T04:40:23.484Z,100458.95
2019-01-25T04:42:52.278Z,100458.95
2019-01-25T04:45:22.959Z,100470.78
2019-01-25T04:47:51.856Z,100468.82
2019-01-25T04:50:25.074Z,100443.00
2019-01-25T04:52:54.871Z,100443.00
2019-01-25T04:55:28.048Z,100464.72
2019-01-25T04:58:01.604Z,100465.75
2019-01-25T05:00:30.247Z,100467.97
2019-01-25T05:03:01.601Z,100473.11
2019-01-25T05:05:30.646Z,100473.11
2019-01-25T05:08:02.396Z,100481.84
2019-01-25T05:10:31.225Z,100481.84
2019-01-25T05:13:00.120Z,100472.69
2019-01-25T05:15:28.904Z,100472.69
2019-01-25T05:17:57.808Z,100481.52
2019-01-25T05:20:26.780Z,100485.88
2019-01-25T05:22:57.330Z,100487.95
2019-01-25T05:25:27.501Z,100487.95
2019-01-25T05:27:56.130Z,100484.85
2019-01-25T05:30:28.407Z,100489.87
2019-01-25T05:32:56.996Z,100505.09
2019-01-25T05:35:27.465Z,100494.20
2019-01-25T05:37:56.310Z,100497.91
2019-01-25T05:40:26.633Z,100497.91
2019-01-25T05:42:55.497Z,100503.30
2019-01-25T05:45:24.104Z,100499.79
2019-01-25T05:47:53.265Z,100505.23
2019-01-25T05:50:21.850Z,100505.23
2019-01-25T05:52:50.824Z,100503.69
2019-01-25T05:55:23.124Z,100507.27
2019-01-25T05:57:54.775Z,100507.07
2019-01-25T06:00:27.790Z,100499.23
2019-01-25T06:02:57.575Z,100499.23
2019-01-25T06:05:27.097Z,100489.87
2019-01-25T06:07:56.189Z,100490.32
2019-01-25T06:10:28.147Z,100493.58
2019-01-25T06:12:56.912Z,100494.18
2019-01-25T06:15:27.597Z,100494.18
2019-01-25T06:17:59.336Z,100492.86
2019-01-25T06:20:28.671Z,100495.27
2019-01-25T06:22:57.389Z,100507.55
2019-01-25T06:25:26.258Z,100488.25
2019-01-25T06:27:55.105Z,100488.25
2019-01-25T06:30:24.133Z,100528.22
2019-01-25T06:32:53.087Z,100528.22
2019-01-25T06:35:22.145Z,100541.30
2019-01-25T06:37:51.316Z,100535.83
2019-01-25T06:40:19.784Z,100532.89
2019-01-25T06:42:48.244Z,100540.78
2019-01-25T06:45:16.799Z,100532.97
2019-01-25T06:47:45.655Z,100536.59
2019-01-25T06:50:15.161Z,100542.31
2019-01-25T06:52:44.065Z,100541.11
2019-01-25T06:55:13.363Z,100549.07
2019-01-25T06:57:55.795Z,100549.07
2019-01-25T07:00:28.963Z,100553.51
2019-01-25T07:02:58.131Z,100541.30
2019-01-25T07:05:27.272Z,100541.30
2019-01-25T07:07:56.371Z,100553.27
2019-01-25T07:10:25.103Z,100558.73
2019-01-25T07:12:54.401Z,100558.73
2019-01-25T07:15:24.783Z,100560.09
2019-01-25T07:17:53.504Z,100561.43
2019-01-25T07:20:22.790Z,100568.31
2019-01-25T07:22:51.380Z,100556.45
2019-01-25T07:25:20.152Z,100556.45
2019-01-25T07:27:48.837Z,100569.27
2019-01-25T07:30:17.717Z,100569.37
2019-01-25T07:32:46.299Z,100565.72
2019-01-25T07:35:15.095Z,100565.72
2019-01-25T07:37:43.886Z,100571.18
2019-01-25T07:40:12.523Z,100567.61
2019-01-25T07:42:41.422Z,100569.88
2019-01-25T07:45:14.855Z,100574.76
2019-01-25T07:47:43.454Z,100571.59
2019-01-25T07:50:13.024Z,100572.93
2019-01-25T07:52:41.875Z,100583.43
2019-01-25T07:55:12.724Z,100579.97
2019-01-25T07:57:41.308Z,100579.97
2019-01-25T08:00:14.671Z,100563.97
